createdAt,value
2018-05-15T00:00:27.886Z,8.10
2018-05-15T00:02:55.385Z,7.33
2018-05-15T00:05:22.933Z,7.60
2018-05-15T00:07:50.422Z,6.80
2018-05-15T00:10:18.726Z,8.17
2018-05-15T00:12:46.223Z,10.00
2018-05-15T00:15:13.745Z,7.03
2018-05-15T00:17:41.242Z,6.77
2018-05-15T00:20:08.785Z,7.97
2018-05-15T00:22:36.285Z,6.90
2018-05-15T00:25:03.821Z,7.90
2018-05-15T00:27:31.319Z,7.77
2018-05-15T00:29:59.621Z,8.30
2018-05-15T00:32:27.127Z,7.70
2018-05-15T00:34:54.650Z,8.23
2018-05-15T00:37:22.151Z,8.40
2018-05-15T00:39:49.654Z,8.43
2018-05-15T00:42:17.186Z,8.23
2018-05-15T00:44:44.721Z,8.50
2018-05-15T00:47:12.271Z,7.67
2018-05-15T00:49:40.539Z,8.27
2018-05-15T00:52:08.056Z,7.70
2018-05-15T00:54:35.553Z,8.97
2018-05-15T00:57:03.087Z,7.50
2018-05-15T00:59:30.601Z,7.83
2018-05-15T01:01:58.129Z,7.70
2018-05-15T01:04:25.667Z,8.30
2018-05-15T01:06:53.187Z,7.77
2018-05-15T01:09:20.809Z,8.37
2018-05-15T01:11:48.335Z,7.53
2018-05-15T01:14:15.827Z,7.60
2018-05-15T01:16:43.357Z,8.73
2018-05-15T01:19:10.883Z,7.63
2018-05-15T01:21:38.432Z,8.23
2018-05-15T01:24:06.715Z,8.40
2018-05-15T01:26:35.123Z,9.30
2018-05-15T01:29:02.621Z,8.13
2018-05-15T01:31:30.187Z,8.63
2018-05-15T01:33:57.812Z,8.23
2018-05-15T01:36:25.637Z,8.40
2018-05-15T01:38:53.903Z,8.93
2018-05-15T01:41:22.203Z,8.23
2018-05-15T01:43:49.706Z,8.40
2018-05-15T01:46:17.232Z,9.20
2018-05-15T01:48:44.733Z,8.60
2018-05-15T01:51:12.266Z,8.70
2018-05-15T01:53:39.775Z,8.17
2018-05-15T01:56:07.309Z,8.77
2018-05-15T01:58:34.914Z,8.57
2018-05-15T02:01:02.367Z,8.73
2018-05-15T02:03:29.870Z,8.80
2018-05-15T02:05:57.412Z,9.33
2018-05-15T02:08:24.906Z,9.40
2018-05-15T02:10:52.439Z,9.10
2018-05-15T02:13:19.929Z,8.53
2018-05-15T02:15:47.480Z,9.00
2018-05-15T02:18:14.974Z,9.17
2018-05-15T02:20:42.517Z,8.60
2018-05-15T02:23:10.783Z,9.40
2018-05-15T02:25:38.331Z,9.40
2018-05-15T02:28:05.838Z,9.63
2018-05-15T02:30:33.483Z,9.17
2018-05-15T02:33:00.907Z,9.93
2018-05-15T02:35:28.625Z,10.27
2018-05-15T02:37:56.118Z,9.37
2018-05-15T02:40:23.618Z,9.17
2018-05-15T02:42:51.923Z,10.07
2018-05-15T02:45:19.418Z,9.67
2018-05-15T02:47:46.963Z,10.10
2018-05-15T02:50:14.466Z,10.37
2018-05-15T02:52:42.781Z,11.03
2018-05-15T02:55:10.277Z,9.43
2018-05-15T02:57:37.819Z,9.00
2018-05-15T03:00:05.317Z,10.93
2018-05-15T03:02:33.622Z,10.43
2018-05-15T03:05:01.193Z,10.63
2018-05-15T03:07:29.440Z,11.53
2018-05-15T03:09:56.963Z,10.73
2018-05-15T03:12:24.510Z,10.17
2018-05-15T03:14:52.023Z,11.27
2018-05-15T03:17:19.579Z,10.87
2018-05-15T03:19:47.850Z,10.50
2018-05-15T03:22:16.156Z,11.27
2018-05-15T03:24:43.670Z,10.63
2018-05-15T03:27:11.217Z,10.60
2018-05-15T03:29:38.736Z,10.07
2018-05-15T03:32:06.232Z,10.23
2018-05-15T03:34:34.619Z,10.63
2018-05-15T03:37:02.114Z,9.70
2018-05-15T03:39:29.687Z,10.10
2018-05-15T03:41:57.187Z,11.10
2018-05-15T03:44:24.734Z,10.80
2018-05-15T03:46:52.231Z,11.27
2018-05-15T03:49:19.783Z,11.63
2018-05-15T03:51:48.062Z,10.63
2018-05-15T03:54:16.368Z,11.90
2018-05-15T03:56:43.867Z,11.40
2018-05-15T03:59:11.413Z,10.50
2018-05-15T04:01:50.736Z,11.30
2018-05-15T04:04:30.155Z,11.23
2018-05-15T04:07:09.413Z,11.90
2018-05-15T04:09:36.966Z,11.10
2018-05-15T04:12:07.307Z,11.63
2018-05-15T04:14:34.854Z,11.27
2018-05-15T04:17:02.359Z,11.13
2018-05-15T04:19:30.672Z,10.40
2018-05-15T04:21:58.167Z,12.20
2018-05-15T04:24:26.510Z,11.93
2018-05-15T04:26:54.019Z,10.80
2018-05-15T04:29:21.566Z,11.03
2018-05-15T04:31:49.061Z,11.67
2018-05-15T04:34:16.605Z,11.30
2018-05-15T04:36:44.870Z,9.97
2018-05-15T04:39:12.402Z,10.40
2018-05-15T04:41:39.917Z,11.60
2018-05-15T04:44:07.475Z,11.27
2018-05-15T04:46:35.783Z,11.80
2018-05-15T04:49:03.290Z,11.30
2018-05-15T04:51:30.831Z,11.97
2018-05-15T04:53:58.327Z,13.73
2018-05-15T04:56:26.646Z,12.83
2018-05-15T04:58:54.141Z,13.70
2018-05-15T05:01:21.682Z,11.63
2018-05-15T05:03:49.188Z,12.17
2018-05-15T05:06:16.731Z,12.23
2018-05-15T05:08:44.367Z,11.57
2018-05-15T05:11:11.919Z,10.77
2018-05-15T05:13:39.423Z,11.50
2018-05-15T05:16:07.726Z,12.20
2018-05-15T05:18:35.231Z,12.53
2018-05-15T05:21:02.792Z,13.10
2018-05-15T05:23:30.284Z,12.50
2018-05-15T05:25:57.815Z,13.73
2018-05-15T05:28:25.326Z,13.57
2018-05-15T05:30:52.947Z,13.43
2018-05-15T05:33:20.637Z,12.20
2018-05-15T05:35:48.185Z,12.90
2018-05-15T05:38:15.688Z,11.90
2018-05-15T05:40:43.196Z,13.20
2018-05-15T05:43:10.738Z,12.80
2018-05-15T05:45:39.010Z,14.43
2018-05-15T05:48:07.315Z,13.27
2018-05-15T05:50:34.805Z,13.30
2018-05-15T05:53:02.348Z,13.40
2018-05-15T05:55:29.839Z,13.60
2018-05-15T05:57:57.366Z,14.03
2018-05-15T06:00:26.827Z,13.80
2018-05-15T06:02:55.129Z,13.30
2018-05-15T06:05:22.626Z,12.97
2018-05-15T06:07:50.163Z,13.80
2018-05-15T06:10:17.667Z,15.20
2018-05-15T06:12:45.203Z,14.93
2018-05-15T06:15:12.695Z,15.13
2018-05-15T06:17:40.232Z,14.70
2018-05-15T06:20:07.754Z,14.00
2018-05-15T06:22:35.299Z,15.07
2018-05-15T06:25:02.806Z,15.17
2018-05-15T06:27:30.644Z,15.07
2018-05-15T06:29:58.168Z,14.40
2018-05-15T06:32:26.527Z,16.30
2018-05-15T06:34:54.850Z,17.53
2018-05-15T06:37:22.701Z,15.67
2018-05-15T06:39:50.218Z,16.00
2018-05-15T06:42:17.725Z,18.13
2018-05-15T06:44:45.282Z,17.10
2018-05-15T06:47:12.796Z,15.73
2018-05-15T06:49:40.336Z,16.57
2018-05-15T06:52:07.835Z,17.80
2018-05-15T06:54:36.294Z,16.00
2018-05-15T06:57:03.802Z,17.23
2018-05-15T06:59:31.364Z,17.60
2018-05-15T07:01:58.903Z,17.93
2018-05-15T07:04:26.402Z,16.40
2018-05-15T07:06:53.940Z,17.63
2018-05-15T07:09:21.446Z,16.97
2018-05-15T07:11:48.998Z,17.53
2018-05-15T07:14:16.625Z,16.00
2018-05-15T07:16:44.189Z,17.03
2018-05-15T07:19:11.683Z,17.70
2018-05-15T07:21:41.950Z,17.20
2018-05-15T07:24:09.482Z,16.57
2018-05-15T07:26:36.981Z,17.20
2018-05-15T07:29:04.692Z,17.80
2018-05-15T07:31:32.223Z,17.50
2018-05-15T07:33:59.780Z,17.43
2018-05-15T07:36:27.282Z,19.30
2018-05-15T07:38:55.600Z,16.13
2018-05-15T07:41:23.099Z,19.13
2018-05-15T07:43:50.640Z,17.03
2018-05-15T07:46:18.155Z,17.73
2018-05-15T07:48:45.919Z,17.73
2018-05-15T07:51:13.426Z,16.03
2018-05-15T07:53:40.980Z,8.50
2018-05-15T07:56:08.504Z,16.77
2018-05-15T07:58:36.061Z,16.87
2018-05-15T08:01:03.558Z,17.77
2018-05-15T08:03:31.097Z,17.23
2018-05-15T08:05:58.616Z,17.80
2018-05-15T08:08:26.932Z,15.90
2018-05-15T08:10:54.438Z,16.00
2018-05-15T08:13:21.951Z,16.07
2018-05-15T08:15:49.500Z,16.63
2018-05-15T08:18:17.003Z,13.97
2018-05-15T08:20:44.541Z,15.93
2018-05-15T08:23:12.111Z,14.03
2018-05-15T08:25:39.660Z,12.00
2018-05-15T08:28:07.155Z,10.43
2018-05-15T08:30:35.469Z,11.87
2018-05-15T08:33:03.051Z,11.63
2018-05-15T08:35:30.597Z,11.90
2018-05-15T08:37:58.100Z,11.03
2018-05-15T08:40:25.647Z,10.53
2018-05-15T08:42:53.750Z,11.77
2018-05-15T08:45:22.124Z,10.90
2018-05-15T08:47:49.810Z,10.70
2018-05-15T08:50:17.349Z,9.37
2018-05-15T08:52:45.622Z,8.80
2018-05-15T08:55:13.918Z,10.40
2018-05-15T08:57:41.423Z,11.20
2018-05-15T09:00:08.998Z,11.97
2018-05-15T09:02:36.497Z,11.90
2018-05-15T09:05:04.008Z,12.23
2018-05-15T09:07:31.550Z,12.63
2018-05-15T09:09:59.054Z,13.70
2018-05-15T09:12:27.355Z,12.80
2018-05-15T09:14:54.911Z,12.37
2018-05-15T09:17:22.478Z,13.30
2018-05-15T09:19:49.975Z,12.47
2018-05-15T09:22:17.511Z,12.43
2018-05-15T09:24:45.024Z,13.00
2018-05-15T09:27:13.335Z,11.17
2018-05-15T09:29:40.839Z,11.87
2018-05-15T09:32:08.391Z,11.20
2018-05-15T09:34:35.882Z,9.47
2018-05-15T09:37:05.190Z,10.23
2018-05-15T09:39:32.723Z,10.13
2018-05-15T09:42:00.282Z,10.33
2018-05-15T09:44:27.790Z,9.20
2018-05-15T09:46:55.429Z,9.10
2018-05-15T09:49:22.884Z,10.00
2018-05-15T09:51:51.210Z,9.60
2018-05-15T09:54:18.701Z,9.23
2018-05-15T09:56:46.304Z,10.13
2018-05-15T09:59:13.823Z,8.83
2018-05-15T10:01:41.328Z,7.50
2018-05-15T10:04:08.868Z,9.67
2018-05-15T10:06:36.387Z,8.00
2018-05-15T10:09:03.926Z,5.90
2018-05-15T10:11:31.434Z,7.60
2018-05-15T10:13:59.754Z,7.73
2018-05-15T10:16:27.454Z,7.67
2018-05-15T10:18:55.156Z,7.40
2018-05-15T10:21:22.649Z,7.80
2018-05-15T10:23:50.187Z,7.03
2018-05-15T10:26:17.707Z,7.10
2018-05-15T10:28:45.250Z,6.80
2018-05-15T10:31:14.059Z,7.70
2018-05-15T10:33:41.623Z,7.40
2018-05-15T10:36:09.131Z,7.37
2018-05-15T10:38:36.694Z,8.00
2018-05-15T10:41:04.188Z,6.87
2018-05-15T10:43:32.478Z,7.00
2018-05-15T10:45:59.965Z,6.47
2018-05-15T10:48:27.520Z,7.90
2018-05-15T10:50:55.068Z,6.33
2018-05-15T10:53:22.566Z,6.70
2018-05-15T10:55:50.112Z,7.00
2018-05-15T10:58:18.171Z,6.50
2018-05-15T11:00:45.699Z,6.43
2018-05-15T11:03:13.197Z,6.27
2018-05-15T11:05:40.737Z,7.10
2018-05-15T11:08:08.329Z,7.50
2018-05-15T11:10:35.862Z,6.83
2018-05-15T11:13:03.366Z,7.50
2018-05-15T11:15:31.681Z,6.37
2018-05-15T11:17:59.187Z,8.00
2018-05-15T11:20:38.479Z,6.77
2018-05-15T11:23:18.233Z,7.90
2018-05-15T11:25:45.791Z,7.30
2018-05-15T11:28:13.287Z,8.10
2018-05-15T11:30:40.830Z,9.57
2018-05-15T11:33:08.335Z,8.60
2018-05-15T11:35:35.855Z,8.97
2018-05-15T11:38:03.407Z,7.97
2018-05-15T11:40:30.913Z,8.60
2018-05-15T11:42:58.461Z,7.93
2018-05-15T11:45:26.715Z,8.27
2018-05-15T11:47:54.770Z,8.90
2018-05-15T11:50:23.576Z,7.23
2018-05-15T11:52:50.426Z,8.20
2018-05-15T11:55:17.610Z,8.27
2018-05-15T11:57:45.274Z,8.50
2018-05-15T12:00:13.583Z,8.50
2018-05-15T12:02:42.004Z,7.90
2018-05-15T12:05:09.355Z,8.63
2018-05-15T12:07:36.898Z,8.57
2018-05-15T12:10:04.395Z,9.50
2018-05-15T12:12:32.860Z,9.53
2018-05-15T12:15:01.163Z,8.90
2018-05-15T12:17:30.258Z,9.07
2018-05-15T12:19:57.769Z,9.10
2018-05-15T12:22:25.285Z,9.73
2018-05-15T12:24:52.826Z,9.70
2018-05-15T12:27:20.331Z,9.60
2018-05-15T12:29:47.902Z,8.80
2018-05-15T12:32:15.414Z,8.20
2018-05-15T12:34:43.838Z,9.03
2018-05-15T12:37:11.347Z,9.57
2018-05-15T12:39:38.885Z,9.60
2018-05-15T12:42:06.697Z,9.27
2018-05-15T12:44:34.957Z,9.03
2018-05-15T12:47:02.465Z,9.77
2018-05-15T12:49:30.021Z,10.70
2018-05-15T12:51:57.525Z,9.63
2018-05-15T12:54:25.058Z,10.13
2018-05-15T12:56:52.554Z,9.80
2018-05-15T12:59:20.099Z,11.77
2018-05-15T13:01:47.696Z,12.00
2018-05-15T13:04:15.150Z,11.47
2018-05-15T13:06:42.649Z,11.43
2018-05-15T13:09:10.956Z,10.57
2018-05-15T13:11:38.464Z,10.07
2018-05-15T13:14:06.048Z,11.20
2018-05-15T13:16:34.311Z,9.00
2018-05-15T13:19:01.823Z,10.77
2018-05-15T13:21:29.351Z,10.57
2018-05-15T13:23:56.846Z,9.07
2018-05-15T13:26:24.382Z,10.73
2018-05-15T13:28:51.885Z,9.27
2018-05-15T13:31:19.419Z,9.40
2018-05-15T13:33:46.934Z,10.10
2018-05-15T13:36:15.233Z,10.57
2018-05-15T13:38:42.734Z,10.13
2018-05-15T13:41:10.293Z,10.77
2018-05-15T13:43:37.791Z,9.57
2018-05-15T13:46:06.087Z,11.40
2018-05-15T13:48:33.603Z,12.07
2018-05-15T13:51:01.148Z,10.50
2018-05-15T13:53:28.655Z,11.40
2018-05-15T13:55:56.203Z,11.47
2018-05-15T13:58:23.985Z,11.63
2018-05-15T14:00:51.526Z,11.17
2018-05-15T14:03:19.028Z,11.07
2018-05-15T14:05:46.574Z,11.37
2018-05-15T14:08:14.077Z,10.80
2018-05-15T14:10:42.383Z,12.20
2018-05-15T14:13:09.910Z,12.43
2018-05-15T14:15:37.465Z,12.40
2018-05-15T14:18:05.197Z,11.50
2018-05-15T14:20:32.733Z,12.87
2018-05-15T14:23:00.253Z,11.10
2018-05-15T14:25:27.825Z,12.43
2018-05-15T14:27:56.147Z,10.93
2018-05-15T14:30:23.643Z,11.67
2018-05-15T14:32:51.186Z,10.30
2018-05-15T14:35:18.713Z,9.00
2018-05-15T14:37:46.249Z,11.00
2018-05-15T14:40:13.766Z,10.00
2018-05-15T14:42:52.927Z,8.43
2018-05-15T14:45:20.461Z,10.53
2018-05-15T14:47:49.135Z,10.70
2018-05-15T14:50:16.689Z,9.80
2018-05-15T14:52:44.265Z,9.53
2018-05-15T14:55:11.860Z,8.20
2018-05-15T14:57:40.287Z,8.07
2018-05-15T15:00:07.937Z,8.57
2018-05-15T15:02:35.458Z,8.70
2018-05-15T15:05:03.796Z,8.40
2018-05-15T15:07:31.359Z,9.43
2018-05-15T15:09:58.918Z,10.10
2018-05-15T15:12:26.460Z,9.57
2018-05-15T15:14:53.995Z,9.13
2018-05-15T15:17:21.518Z,9.53
2018-05-15T15:19:49.068Z,10.60
2018-05-15T15:22:17.342Z,10.43
2018-05-15T15:24:44.880Z,9.93
2018-05-15T15:27:12.381Z,11.10
2018-05-15T15:29:39.940Z,12.63
2018-05-15T15:32:08.227Z,13.33
2018-05-15T15:34:36.493Z,9.87
2018-05-15T15:37:04.808Z,9.10
2018-05-15T15:39:34.126Z,10.87
2018-05-15T15:42:01.632Z,6.50
2018-05-15T15:44:29.527Z,5.80
2018-05-15T15:46:57.035Z,7.37
2018-05-15T15:49:24.567Z,7.20
2018-05-15T15:51:52.115Z,6.53
2018-05-15T15:54:19.632Z,6.60
2018-05-15T15:56:49.641Z,6.53
2018-05-15T15:59:17.174Z,7.20
2018-05-15T16:01:44.755Z,7.00
2018-05-15T16:04:12.995Z,6.37
2018-05-15T16:06:40.554Z,5.40
2018-05-15T16:09:08.240Z,5.10
2018-05-15T16:11:35.779Z,5.57
2018-05-15T16:14:03.275Z,5.47
2018-05-15T16:16:30.837Z,5.17
2018-05-15T16:18:58.415Z,5.20
2018-05-15T16:21:25.978Z,5.90
2018-05-15T16:23:54.266Z,5.50
2018-05-15T16:26:21.824Z,6.20
2018-05-15T16:28:49.336Z,6.20
2018-05-15T16:31:17.652Z,6.40
2018-05-15T16:33:45.998Z,6.80
2018-05-15T16:36:13.547Z,6.70
2018-05-15T16:38:41.046Z,7.43
2018-05-15T16:41:09.411Z,6.73
2018-05-15T16:43:36.944Z,7.40
2018-05-15T16:46:04.523Z,7.50
2018-05-15T16:48:32.025Z,8.67
2018-05-15T16:50:59.566Z,6.70
2018-05-15T16:53:27.138Z,7.40
2018-05-15T16:55:54.666Z,6.87
2018-05-15T16:58:24.096Z,6.40
2018-05-15T17:00:51.636Z,6.50
2018-05-15T17:03:19.899Z,6.90
2018-05-15T17:05:47.435Z,8.27
2018-05-15T17:08:15.455Z,8.97
2018-05-15T17:10:42.976Z,9.20
2018-05-15T17:13:12.047Z,8.50
2018-05-15T17:15:39.569Z,8.60
2018-05-15T17:18:07.074Z,7.60
2018-05-15T17:20:34.619Z,8.87
2018-05-15T17:23:02.126Z,7.53
2018-05-15T17:25:29.748Z,9.20
2018-05-15T17:27:57.964Z,8.63
2018-05-15T17:30:26.267Z,8.60
2018-05-15T17:32:53.775Z,9.20
2018-05-15T17:35:21.337Z,10.07
2018-05-15T17:37:48.947Z,9.40
2018-05-15T17:40:16.494Z,12.20
2018-05-15T17:42:44.019Z,10.33
2018-05-15T17:45:11.602Z,10.27
2018-05-15T17:47:39.864Z,11.00
2018-05-15T17:50:08.133Z,10.20
2018-05-15T17:52:35.688Z,11.43
2018-05-15T17:55:03.187Z,11.37
2018-05-15T17:57:30.731Z,11.60
2018-05-15T17:59:59.108Z,10.60
2018-05-15T18:02:26.570Z,12.03
2018-05-15T18:04:54.071Z,13.73
2018-05-15T18:07:21.655Z,12.37
2018-05-15T18:09:49.950Z,11.70
2018-05-15T18:12:17.519Z,13.80
2018-05-15T18:14:45.834Z,14.00
2018-05-15T18:17:13.398Z,13.50
2018-05-15T18:19:40.938Z,12.80
2018-05-15T18:22:08.512Z,12.90
2018-05-15T18:24:36.029Z,12.20
2018-05-15T18:27:04.360Z,10.30
2018-05-15T18:29:31.884Z,11.60
2018-05-15T18:31:59.421Z,11.83
2018-05-15T18:34:27.750Z,11.80
2018-05-15T18:36:55.285Z,10.80
2018-05-15T18:39:23.752Z,11.40
2018-05-15T18:41:51.298Z,10.33
2018-05-15T18:44:19.602Z,10.00
2018-05-15T18:46:47.113Z,10.10
2018-05-15T18:49:15.419Z,9.03
2018-05-15T18:51:42.921Z,10.30
2018-05-15T18:54:10.462Z,9.10
2018-05-15T18:56:37.971Z,8.93
2018-05-15T18:59:05.514Z,8.97
2018-05-15T19:01:33.074Z,8.63
2018-05-15T19:04:00.616Z,9.10
2018-05-15T19:06:28.576Z,9.33
2018-05-15T19:08:56.304Z,7.47
2018-05-15T19:11:23.808Z,9.00
2018-05-15T19:13:52.280Z,10.50
2018-05-15T19:16:19.933Z,9.40
2018-05-15T19:18:47.486Z,8.83
2018-05-15T19:21:14.987Z,9.50
2018-05-15T19:23:42.474Z,8.77
2018-05-15T19:26:10.016Z,10.30
2018-05-15T19:28:38.283Z,9.43
2018-05-15T19:31:05.849Z,9.33
2018-05-15T19:33:39.143Z,10.23
2018-05-15T19:36:10.618Z,10.77
2018-05-15T19:38:39.777Z,10.10
2018-05-15T19:41:08.032Z,10.57
2018-05-15T19:43:35.551Z,10.93
2018-05-15T19:46:03.848Z,8.13
2018-05-15T19:48:31.339Z,8.37
2018-05-15T19:50:58.885Z,10.67
2018-05-15T19:53:26.382Z,11.27
2018-05-15T19:55:54.047Z,10.90
2018-05-15T19:58:21.551Z,10.73
2018-05-15T20:00:49.091Z,11.17
2018-05-15T20:03:16.619Z,11.43
2018-05-15T20:05:44.172Z,10.73
2018-05-15T20:08:11.686Z,10.47
2018-05-15T20:10:39.246Z,10.50
2018-05-15T20:13:06.746Z,10.60
2018-05-15T20:15:34.356Z,12.80
2018-05-15T20:18:01.869Z,11.10
2018-05-15T20:20:29.374Z,11.60
2018-05-15T20:22:56.940Z,10.57
2018-05-15T20:25:24.445Z,10.20
2018-05-15T20:27:52.163Z,11.07
2018-05-15T20:30:19.658Z,11.97
2018-05-15T20:32:47.195Z,11.60
2018-05-15T20:35:14.711Z,11.87
2018-05-15T20:37:42.252Z,12.73
2018-05-15T20:40:09.764Z,12.90
2018-05-15T20:42:37.316Z,12.57
2018-05-15T20:45:04.815Z,13.23
2018-05-15T20:47:32.362Z,11.73
2018-05-15T20:49:59.864Z,12.03
2018-05-15T20:52:27.403Z,12.17
2018-05-15T20:54:54.919Z,11.33
2018-05-15T20:57:22.469Z,11.57
2018-05-15T20:59:49.971Z,11.90
2018-05-15T21:02:17.520Z,12.47
2018-05-15T21:04:45.037Z,12.27
2018-05-15T21:07:12.557Z,12.33
2018-05-15T21:09:40.095Z,11.20
2018-05-15T21:12:07.606Z,11.77
2018-05-15T21:14:35.358Z,12.57
2018-05-15T21:17:03.642Z,12.20
2018-05-15T21:19:31.191Z,12.77
2018-05-15T21:21:58.730Z,13.60
2018-05-15T21:24:26.279Z,13.20
2018-05-15T21:26:53.797Z,12.37
2018-05-15T21:29:21.347Z,13.13
2018-05-15T21:31:48.861Z,12.70
2018-05-15T21:34:16.402Z,12.43
2018-05-15T21:36:43.997Z,11.17
2018-05-15T21:39:11.459Z,13.20
2018-05-15T21:41:38.966Z,12.53
2018-05-15T21:44:10.068Z,12.33
2018-05-15T21:46:37.588Z,11.90
2018-05-15T21:49:05.136Z,13.93
2018-05-15T21:51:32.629Z,13.20
2018-05-15T21:54:00.135Z,12.97
2018-05-15T21:56:27.675Z,14.17
2018-05-15T21:58:55.178Z,12.70
2018-05-15T22:01:22.924Z,12.60
2018-05-15T22:03:50.478Z,11.73
2018-05-15T22:06:18.770Z,12.20
2018-05-15T22:08:46.275Z,13.37
2018-05-15T22:11:14.145Z,13.50
2018-05-15T22:13:53.554Z,13.93
2018-05-15T22:16:33.011Z,13.77
2018-05-15T22:19:12.217Z,10.90
2018-05-15T22:21:51.664Z,11.07
2018-05-15T22:24:29.964Z,13.90
2018-05-15T22:26:57.516Z,12.83
2018-05-15T22:29:25.019Z,13.10
2018-05-15T22:31:53.335Z,13.33
2018-05-15T22:34:20.838Z,14.40
2018-05-15T22:36:49.189Z,13.90
2018-05-15T22:39:16.702Z,13.23
2018-05-15T22:41:44.339Z,13.53
2018-05-15T22:44:11.776Z,13.97
2018-05-15T22:46:39.330Z,15.00
2018-05-15T22:49:06.834Z,13.10
2018-05-15T22:51:34.378Z,14.37
2018-05-15T22:54:02.651Z,13.73
2018-05-15T22:56:30.956Z,13.80
2018-05-15T22:58:58.496Z,13.50
2018-05-15T23:01:26.002Z,15.20
2018-05-15T23:03:53.508Z,14.00
2018-05-15T23:06:21.904Z,15.20
2018-05-15T23:08:49.332Z,15.20
2018-05-15T23:11:16.870Z,13.90
2018-05-15T23:13:46.325Z,14.97
2018-05-15T23:16:13.862Z,14.60
2018-05-15T23:18:42.119Z,15.17
2018-05-15T23:21:09.662Z,14.57
2018-05-15T23:23:37.159Z,15.37
2018-05-15T23:26:04.700Z,17.00
2018-05-15T23:28:32.201Z,15.50
2018-05-15T23:30:59.747Z,14.30
2018-05-15T23:33:27.272Z,17.50
2018-05-15T23:35:54.885Z,16.40
2018-05-15T23:38:22.384Z,14.67
2018-05-15T23:40:49.918Z,15.80
2018-05-15T23:43:17.411Z,16.40
2018-05-15T23:45:44.932Z,17.83
2018-05-15T23:48:12.473Z,17.60
2018-05-15T23:50:39.980Z,20.63
2018-05-15T23:53:07.516Z,22.53
2018-05-15T23:55:35.032Z,21.50
2018-05-15T23:58:03.345Z,22.50
